createdAt,value
2022-08-24T00:00:04.611Z,101738.25
2022-08-24T00:03:12.025Z,101742.13
2022-08-24T00:06:20.635Z,101749.13
2022-08-24T00:09:24.910Z,101745.63
2022-08-24T00:12:29.346Z,101731.47
2022-08-24T00:15:34.141Z,101725.94
2022-08-24T00:18:43.171Z,101732.44
2022-08-24T00:21:47.439Z,101728.53
2022-08-24T00:24:51.845Z,101725.84
2022-08-24T00:27:58.117Z,101733.19
2022-08-24T00:31:03.571Z,101738.31
2022-08-24T00:34:10.603Z,101709.88
2022-08-24T00:37:14.979Z,101725.31
2022-08-24T00:40:36.653Z,101736.44
2022-08-24T00:43:58.253Z,101750.69
2022-08-24T00:47:19.002Z,101747.41
2022-08-24T00:50:33.210Z,101752.31
2022-08-24T00:53:41.387Z,101738.25
2022-08-24T00:56:56.272Z,101716.00
2022-08-24T01:00:15.402Z,101698.56
2022-08-24T01:03:20.295Z,101712.72
2022-08-24T01:06:25.168Z,101705.66
2022-08-24T01:09:29.926Z,101704.09
2022-08-24T01:12:38.859Z,101719.84
2022-08-24T01:15:49.610Z,101708.34
2022-08-24T01:18:54.559Z,101695.13
2022-08-24T01:22:33.715Z,101724.31
2022-08-24T01:25:41.767Z,101713.88
2022-08-24T01:28:55.482Z,101703.22
2022-08-24T01:31:59.997Z,101705.78
2022-08-24T01:35:05.425Z,101710.47
2022-08-24T01:38:12.303Z,101710.38
2022-08-24T01:41:16.630Z,101682.81
2022-08-24T01:44:21.748Z,101685.56
2022-08-24T01:47:26.113Z,101687.78
2022-08-24T01:50:32.151Z,101697.47
2022-08-24T01:53:37.137Z,101715.91
2022-08-24T01:56:42.649Z,101693.66
2022-08-24T01:59:46.962Z,101708.78
2022-08-24T02:02:51.309Z,101692.06
2022-08-24T02:05:55.434Z,101692.47
2022-08-24T02:09:00.711Z,101699.00
2022-08-24T02:12:06.938Z,101702.59
2022-08-24T02:15:11.757Z,101729.63
2022-08-24T02:18:17.343Z,101741.34
2022-08-24T02:21:21.697Z,101746.00
2022-08-24T02:24:27.770Z,101754.22
2022-08-24T02:27:32.193Z,101741.66
2022-08-24T02:30:36.350Z,101741.56
2022-08-24T02:33:42.082Z,101743.28
2022-08-24T02:36:46.878Z,101754.34
2022-08-24T02:39:52.539Z,101756.22
2022-08-24T02:42:57.111Z,101766.13
2022-08-24T02:46:01.773Z,101765.59
2022-08-24T02:49:11.925Z,101770.50
2022-08-24T02:52:16.726Z,101766.22
2022-08-24T02:55:21.055Z,101761.00
2022-08-24T02:58:25.674Z,101749.44
2022-08-24T03:01:30.414Z,101759.44
2022-08-24T03:04:35.507Z,101775.59
2022-08-24T03:07:40.204Z,101753.78
2022-08-24T03:10:44.968Z,101737.28
2022-08-24T03:13:49.595Z,101760.25
2022-08-24T03:16:54.136Z,101773.75
2022-08-24T03:19:58.473Z,101785.47
2022-08-24T03:23:03.686Z,101775.13
2022-08-24T03:26:07.770Z,101792.41
2022-08-24T03:29:14.320Z,101793.19
2022-08-24T03:32:20.691Z,101803.06
2022-08-24T03:35:25.154Z,101801.03
2022-08-24T03:38:30.132Z,101788.78
2022-08-24T03:41:35.390Z,101792.41
2022-08-24T03:44:41.609Z,101796.19
2022-08-24T03:47:46.505Z,101776.19
2022-08-24T03:50:51.307Z,101781.91
2022-08-24T03:53:58.651Z,101772.22
2022-08-24T03:57:03.461Z,101777.72
2022-08-24T04:00:12.255Z,101786.56
2022-08-24T04:03:16.919Z,101788.75
2022-08-24T04:06:22.935Z,101792.16
2022-08-24T04:09:27.317Z,101804.69
2022-08-24T04:12:34.657Z,101809.44
2022-08-24T04:15:43.419Z,101816.56
2022-08-24T04:18:49.667Z,101822.56
2022-08-24T04:21:54.328Z,101828.84
2022-08-24T04:24:59.111Z,101829.03
2022-08-24T04:28:03.642Z,101823.06
2022-08-24T04:31:08.416Z,101830.91
2022-08-24T04:34:16.063Z,101827.03
2022-08-24T04:37:25.574Z,101823.25
2022-08-24T04:40:34.661Z,101835.94
2022-08-24T04:43:45.406Z,101827.13
2022-08-24T04:46:50.705Z,101852.19
2022-08-24T04:49:55.166Z,101851.41
2022-08-24T04:52:59.497Z,101861.28
2022-08-24T04:56:09.331Z,101860.53
2022-08-24T04:59:14.158Z,101874.72
2022-08-24T05:02:18.716Z,101869.41
2022-08-24T05:05:22.781Z,101852.66
2022-08-24T05:08:27.162Z,101864.38
2022-08-24T05:11:31.719Z,101865.09
2022-08-24T05:14:36.556Z,101854.47
2022-08-24T05:17:49.938Z,101853.50
2022-08-24T05:20:56.685Z,101869.31
2022-08-24T05:24:01.026Z,101876.44
2022-08-24T05:27:05.627Z,101886.88
2022-08-24T05:30:11.434Z,101897.13
2022-08-24T05:33:15.843Z,101898.44
2022-08-24T05:36:27.963Z,101908.03
2022-08-24T05:39:32.806Z,101910.38
2022-08-24T05:42:40.450Z,101912.75
2022-08-24T05:45:46.032Z,101903.75
2022-08-24T05:48:53.203Z,101895.78
2022-08-24T05:51:57.889Z,101911.34
2022-08-24T05:55:02.784Z,101903.19
2022-08-24T05:58:07.619Z,101903.56
2022-08-24T06:01:23.033Z,101917.41
2022-08-24T06:04:29.183Z,101913.50
2022-08-24T06:07:34.082Z,101902.78
2022-08-24T06:10:50.427Z,101906.69
2022-08-24T06:13:59.319Z,101913.13
2022-08-24T06:17:07.680Z,101920.16
2022-08-24T06:20:12.459Z,101930.28
2022-08-24T06:23:17.131Z,101927.78
2022-08-24T06:26:40.778Z,101925.47
2022-08-24T06:29:45.011Z,101919.84
2022-08-24T06:32:49.385Z,101916.50
2022-08-24T06:35:55.313Z,101906.94
2022-08-24T06:39:00.504Z,101906.44
2022-08-24T06:42:06.373Z,101897.16
2022-08-24T06:45:11.920Z,101888.66
2022-08-24T06:48:17.302Z,101882.75
2022-08-24T06:51:22.913Z,101879.78
2022-08-24T06:54:27.386Z,101892.56
2022-08-24T06:57:32.853Z,101881.38
2022-08-24T07:00:37.506Z,101891.28
2022-08-24T07:03:43.009Z,101889.91
2022-08-24T07:06:47.696Z,101892.66
2022-08-24T07:09:54.571Z,101907.16
2022-08-24T07:12:59.200Z,101908.09
2022-08-24T07:16:05.141Z,101915.31
2022-08-24T07:19:09.451Z,101916.41
2022-08-24T07:22:16.973Z,101902.16
2022-08-24T07:25:21.663Z,101909.28
2022-08-24T07:28:31.739Z,101918.31
2022-08-24T07:31:39.493Z,101918.38
2022-08-24T07:34:45.124Z,101924.50
2022-08-24T07:37:50.339Z,101912.69
2022-08-24T07:41:33.371Z,101924.38
2022-08-24T07:44:23.850Z,101918.38
2022-08-24T07:47:38.548Z,101896.81
2022-08-24T07:50:45.630Z,101896.22
2022-08-24T07:53:53.890Z,101890.03
2022-08-24T07:57:06.423Z,101900.25
2022-08-24T08:00:15.555Z,101892.00
2022-08-24T08:03:21.869Z,101888.38
2022-08-24T08:06:26.886Z,101875.97
2022-08-24T08:09:31.305Z,101865.28
2022-08-24T08:12:36.072Z,101889.13
2022-08-24T08:15:40.311Z,101894.84
2022-08-24T08:18:45.606Z,101866.00
2022-08-24T08:22:12.358Z,101883.25
2022-08-24T08:25:17.844Z,101875.84
2022-08-24T08:28:25.664Z,101892.00
2022-08-24T08:31:30.590Z,101894.44
2022-08-24T08:34:39.042Z,101915.84
2022-08-24T08:37:43.532Z,101918.75
2022-08-24T08:41:24.490Z,101913.16
2022-08-24T08:44:52.811Z,101924.09
2022-08-24T08:48:12.126Z,101902.41
2022-08-24T08:51:40.612Z,101916.25
2022-08-24T08:55:06.177Z,101898.00
2022-08-24T08:58:35.250Z,101898.59
2022-08-24T09:02:22.697Z,101895.91
2022-08-24T09:09:07.857Z,101891.81
2022-08-24T09:12:52.406Z,101902.75
2022-08-24T09:16:24.796Z,101907.44
2022-08-24T09:20:09.094Z,101882.94
2022-08-24T09:23:31.483Z,101862.63
2022-08-24T09:27:18.158Z,101821.94
2022-08-24T09:30:27.443Z,101852.28
2022-08-24T09:34:07.530Z,101843.59
2022-08-24T09:37:33.913Z,101836.31
2022-08-24T09:40:50.368Z,101820.41
2022-08-24T09:44:30.644Z,101816.97
2022-08-24T09:48:15.717Z,101790.19
2022-08-24T09:51:46.816Z,101812.53
2022-08-24T09:55:51.430Z,101823.69
2022-08-24T09:59:20.463Z,101811.13
2022-08-24T10:02:50.882Z,101805.94
2022-08-24T10:06:07.465Z,101819.78
2022-08-24T10:09:49.160Z,101822.75
2022-08-24T10:13:25.247Z,101784.63
2022-08-24T10:17:17.096Z,101818.28
2022-08-24T10:21:00.213Z,101747.69
2022-08-24T10:24:34.401Z,101758.53
2022-08-24T10:28:04.314Z,101758.66
2022-08-24T10:31:14.826Z,101745.78
2022-08-24T10:34:25.092Z,101734.28
2022-08-24T10:38:14.149Z,101745.56
2022-08-24T10:41:44.151Z,101722.00
2022-08-24T10:44:57.736Z,101694.41
2022-08-24T10:48:14.988Z,101688.94
2022-08-24T10:51:59.495Z,101699.22
2022-08-24T10:55:27.692Z,101690.75
2022-08-24T10:58:43.786Z,101702.25
2022-08-24T11:02:09.617Z,101692.06
2022-08-24T11:05:41.475Z,101679.63
2022-08-24T11:09:03.410Z,101675.56
2022-08-24T11:12:36.616Z,101691.97
2022-08-24T11:15:52.449Z,101687.53
2022-08-24T11:19:03.544Z,101681.31
2022-08-24T11:22:32.871Z,101683.31
2022-08-24T11:25:42.405Z,101690.69
2022-08-24T11:29:01.244Z,101692.97
2022-08-24T11:32:05.655Z,101681.97
2022-08-24T11:35:36.711Z,101678.66
2022-08-24T11:38:45.830Z,101676.19
2022-08-24T11:41:59.018Z,101692.59
2022-08-24T11:45:24.911Z,101678.88
2022-08-24T11:48:47.888Z,101671.81
2022-08-24T11:52:17.756Z,101681.78
2022-08-24T11:55:51.773Z,101671.22
2022-08-24T11:59:10.105Z,101668.19
2022-08-24T12:02:40.317Z,101676.97
2022-08-24T12:06:01.653Z,101671.81
2022-08-24T12:09:35.036Z,101668.66
2022-08-24T12:12:48.127Z,101668.34
2022-08-24T12:16:15.126Z,101658.25
2022-08-24T12:19:35.556Z,101657.03
2022-08-24T12:22:42.717Z,101655.31
2022-08-24T12:26:03.604Z,101653.28
2022-08-24T12:29:18.698Z,101638.66
2022-08-24T12:32:31.700Z,101633.97
2022-08-24T12:35:50.403Z,101637.84
2022-08-24T12:39:28.780Z,101642.25
2022-08-24T12:42:52.280Z,101638.50
2022-08-24T12:46:01.379Z,101639.59
2022-08-24T12:49:31.101Z,101642.78
2022-08-24T12:53:38.103Z,101642.59
2022-08-24T12:57:55.008Z,101655.06
2022-08-24T13:01:06.202Z,101631.94
2022-08-24T13:04:32.570Z,101650.94
2022-08-24T13:07:48.290Z,101639.13
2022-08-24T13:11:02.858Z,101644.00
2022-08-24T13:14:20.903Z,101657.97
2022-08-24T13:17:41.533Z,101639.09
2022-08-24T13:20:46.327Z,101640.47
2022-08-24T13:24:29.583Z,101646.81
2022-08-24T13:27:37.278Z,101641.00
2022-08-24T13:31:03.077Z,101643.03
2022-08-24T13:34:09.128Z,101642.84
2022-08-24T13:37:24.257Z,101626.31
2022-08-24T13:40:29.229Z,101633.56
2022-08-24T13:44:06.884Z,101634.25
2022-08-24T13:48:25.710Z,101640.97
2022-08-24T14:00:15.552Z,101639.59
2022-08-24T14:04:04.475Z,101644.13
2022-08-24T14:07:22.826Z,101637.66
2022-08-24T14:10:42.586Z,101632.50
2022-08-24T14:14:13.789Z,101637.19
2022-08-24T14:18:03.589Z,101633.53
2022-08-24T14:21:18.075Z,101634.72
2022-08-24T14:24:55.656Z,101635.69
2022-08-24T14:28:39.042Z,101634.00
2022-08-24T14:31:59.990Z,101625.47
2022-08-24T14:35:39.415Z,101623.53
2022-08-24T14:39:08.573Z,101624.16
2022-08-24T14:42:37.516Z,101623.94
2022-08-24T14:45:51.609Z,101628.84
2022-08-24T14:49:20.459Z,101618.41
2022-08-24T14:53:58.482Z,101628.59
2022-08-24T14:57:23.933Z,101618.53
2022-08-24T15:01:04.334Z,101617.50
2022-08-24T15:04:42.876Z,101606.72
2022-08-24T15:08:15.942Z,101607.88
2022-08-24T15:11:27.885Z,101607.78
2022-08-24T15:14:56.438Z,101606.03
2022-08-24T15:18:37.236Z,101607.03
2022-08-24T15:22:33.825Z,101613.38
2022-08-24T15:26:09.366Z,101610.34
2022-08-24T15:29:25.960Z,101611.94
2022-08-24T15:33:05.801Z,101599.53
2022-08-24T15:36:21.308Z,101608.13
2022-08-24T15:39:37.568Z,101606.97
2022-08-24T15:43:19.620Z,101611.09
2022-08-24T15:46:34.038Z,101620.19
2022-08-24T15:51:01.488Z,101603.03
2022-08-24T15:54:26.926Z,101611.69
2022-08-24T15:57:52.820Z,101608.31
2022-08-24T16:02:13.468Z,101609.56
2022-08-24T16:05:24.679Z,101617.16
2022-08-24T16:08:59.506Z,101614.59
2022-08-24T16:12:18.199Z,101618.84
2022-08-24T16:15:22.440Z,101614.06
2022-08-24T16:18:51.737Z,101617.69
2022-08-24T16:22:10.706Z,101605.94
2022-08-24T16:25:34.840Z,101619.81
2022-08-24T16:28:39.955Z,101613.63
2022-08-24T16:31:51.883Z,101607.09
2022-08-24T16:35:19.716Z,101616.44
2022-08-24T16:38:24.498Z,101637.72
2022-08-24T16:41:30.735Z,101618.34
2022-08-24T16:44:42.572Z,101624.78
2022-08-24T16:47:47.710Z,101630.47
2022-08-24T16:50:52.473Z,101621.41
2022-08-24T16:53:57.323Z,101630.84
2022-08-24T16:57:14.160Z,101628.06
2022-08-24T17:00:21.890Z,101632.22
2022-08-24T17:03:26.611Z,101629.44
2022-08-24T17:06:31.167Z,101627.44
2022-08-24T17:09:39.583Z,101629.44
2022-08-24T17:12:44.670Z,101630.72
2022-08-24T17:15:53.285Z,101637.97
2022-08-24T17:18:59.359Z,101641.94
2022-08-24T17:22:05.599Z,101648.22
2022-08-24T17:25:10.499Z,101641.03
2022-08-24T17:28:18.777Z,101640.19
2022-08-24T17:31:26.406Z,101636.38
2022-08-24T17:34:32.170Z,101641.47
2022-08-24T17:37:37.082Z,101647.69
2022-08-24T17:40:41.423Z,101660.66
2022-08-24T17:43:45.988Z,101659.56
2022-08-24T17:46:53.176Z,101669.88
2022-08-24T17:49:57.741Z,101671.69
2022-08-24T17:53:02.231Z,101688.19
2022-08-24T17:56:08.428Z,101687.78
2022-08-24T17:59:24.820Z,101694.56
2022-08-24T18:02:30.152Z,101696.81
2022-08-24T18:05:35.309Z,101718.69
2022-08-24T18:08:39.767Z,101736.31
2022-08-24T18:11:44.164Z,101748.72
2022-08-24T18:14:49.159Z,101783.41
2022-08-24T18:17:54.992Z,101803.69
2022-08-24T18:20:59.322Z,101812.28
2022-08-24T18:24:03.998Z,101838.34
2022-08-24T18:27:24.278Z,101852.69
2022-08-24T18:30:31.580Z,101863.09
2022-08-24T18:33:36.362Z,101867.00
2022-08-24T18:36:40.945Z,101878.28
2022-08-24T18:39:45.439Z,101883.31
2022-08-24T18:42:52.383Z,101894.31
2022-08-24T18:45:56.941Z,101899.34
2022-08-24T18:49:02.957Z,101904.38
2022-08-24T18:52:09.771Z,101907.56
2022-08-24T18:55:15.213Z,101907.09
2022-08-24T18:58:19.984Z,101910.16
2022-08-24T19:01:25.600Z,101908.75
2022-08-24T19:04:33.332Z,101921.03
2022-08-24T19:07:43.472Z,101913.06
2022-08-24T19:10:47.782Z,101923.13
2022-08-24T19:13:52.194Z,101932.91
2022-08-24T19:16:56.496Z,101922.69
2022-08-24T19:20:00.921Z,101920.16
2022-08-24T19:23:10.719Z,101925.75
2022-08-24T19:26:15.111Z,101925.41
2022-08-24T19:29:38.953Z,101946.31
2022-08-24T19:32:45.747Z,101939.63
2022-08-24T19:35:51.284Z,101935.63
2022-08-24T19:38:56.392Z,101949.13
2022-08-24T19:42:03.145Z,101954.97
2022-08-24T19:45:27.450Z,101955.22
2022-08-24T19:48:36.607Z,101952.31
2022-08-24T19:51:41.280Z,101966.03
2022-08-24T19:54:48.201Z,101970.03
2022-08-24T19:58:37.412Z,101978.63
2022-08-24T20:01:41.982Z,101985.31
2022-08-24T20:04:46.083Z,101977.53
2022-08-24T20:07:51.801Z,101990.19
2022-08-24T20:10:58.962Z,101988.19
2022-08-24T20:14:03.598Z,101994.50
2022-08-24T20:17:08.054Z,101992.06
2022-08-24T20:20:17.631Z,101989.88
2022-08-24T20:23:22.424Z,101995.84
2022-08-24T20:26:36.810Z,101999.81
2022-08-24T20:29:41.283Z,102001.75
2022-08-24T20:32:45.841Z,102002.44
2022-08-24T20:35:52.968Z,102015.59
2022-08-24T20:39:00.264Z,102017.75
2022-08-24T20:42:05.005Z,102014.59
2022-08-24T20:45:12.879Z,102015.66
2022-08-24T20:48:31.359Z,102030.09
2022-08-24T20:51:37.263Z,102023.38
2022-08-24T20:54:43.439Z,102028.13
2022-08-24T20:58:00.697Z,102031.13
2022-08-24T21:01:06.885Z,102025.06
2022-08-24T21:04:11.711Z,102035.84
2022-08-24T21:07:16.673Z,102045.28
2022-08-24T21:10:24.921Z,102038.41
2022-08-24T21:13:31.339Z,102048.59
2022-08-24T21:16:39.626Z,102043.69
2022-08-24T21:19:44.080Z,102049.03
2022-08-24T21:22:49.723Z,102045.75
2022-08-24T21:25:54.418Z,102048.97
2022-08-24T21:28:59.301Z,102048.34
2022-08-24T21:32:22.810Z,102044.81
2022-08-24T21:35:27.375Z,102049.28
2022-08-24T21:38:32.040Z,102057.28
2022-08-24T21:41:36.858Z,102056.88
2022-08-24T21:44:41.522Z,102051.03
2022-08-24T21:47:46.401Z,102050.81
2022-08-24T21:50:51.125Z,102049.19
2022-08-24T21:53:59.717Z,102056.06
2022-08-24T21:57:05.932Z,102062.44
2022-08-24T22:00:17.914Z,102071.66
2022-08-24T22:03:22.823Z,102078.91
2022-08-24T22:06:31.631Z,102075.47
2022-08-24T22:09:36.447Z,102075.78
2022-08-24T22:12:43.422Z,102073.38
2022-08-24T22:15:47.880Z,102079.66
2022-08-24T22:18:52.073Z,102079.53
2022-08-24T22:21:56.385Z,102071.44
2022-08-24T22:25:00.821Z,102070.03
2022-08-24T22:28:05.394Z,102069.84
2022-08-24T22:31:24.319Z,102072.50
2022-08-24T22:34:28.730Z,102067.06
2022-08-24T22:37:34.790Z,102072.91
2022-08-24T22:40:39.355Z,102069.28
2022-08-24T22:44:02.917Z,102075.47
2022-08-24T22:47:13.129Z,102066.19
2022-08-24T22:50:19.521Z,102072.47
2022-08-24T22:53:24.241Z,102061.56
2022-08-24T22:56:35.912Z,102067.69
2022-08-24T22:59:42.958Z,102073.75
2022-08-24T23:02:47.426Z,102069.25
2022-08-24T23:05:51.861Z,102071.28
2022-08-24T23:08:56.843Z,102069.34
2022-08-24T23:12:01.120Z,102067.34
2022-08-24T23:15:06.136Z,102075.25
2022-08-24T23:18:29.105Z,102082.38
2022-08-24T23:21:34.401Z,102071.47
2022-08-24T23:24:40.231Z,102072.00
2022-08-24T23:27:49.374Z,102075.03
2022-08-24T23:30:54.463Z,102081.50
2022-08-24T23:33:59.529Z,102076.06
2022-08-24T23:37:05.270Z,102072.56
2022-08-24T23:40:10.504Z,102082.25
2022-08-24T23:43:14.892Z,102078.19
2022-08-24T23:46:19.559Z,102075.63
2022-08-24T23:49:27.363Z,102080.75
2022-08-24T23:52:31.919Z,102081.06
2022-08-24T23:55:36.562Z,102076.56
2022-08-24T23:58:41.887Z,102075.53
